sensor_id;sensor_type;location;lat;lon;timestamp;P1;durP1;ratioP1;P2;durP2;ratioP2
9559;SDS011;4818;50.860;4.648;2022-11-20T00:01:55;31.33;;;16.95;;
9559;SDS011;4818;50.860;4.648;2022-11-20T00:04:21;32.47;;;17.00;;
9559;SDS011;4818;50.860;4.648;2022-11-20T00:06:47;32.33;;;16.73;;
9559;SDS011;4818;50.860;4.648;2022-11-20T00:09:13;32.97;;;18.25;;
9559;SDS011;4818;50.860;4.648;2022-11-20T00:11:40;33.20;;;18.65;;
9559;SDS011;4818;50.860;4.648;2022-11-20T00:14:06;31.10;;;18.02;;
9559;SDS011;4818;50.860;4.648;2022-11-20T00:16:32;37.40;;;17.75;;
9559;SDS011;4818;50.860;4.648;2022-11-20T00:18:59;33.10;;;17.52;;
9559;SDS011;4818;50.860;4.648;2022-11-20T00:21:27;33.97;;;18.38;;
9559;SDS011;4818;50.860;4.648;2022-11-20T00:23:54;37.17;;;19.02;;
9559;SDS011;4818;50.860;4.648;2022-11-20T00:26:21;34.88;;;18.83;;
9559;SDS011;4818;50.860;4.648;2022-11-20T00:28:51;36.70;;;19.20;;
9559;SDS011;4818;50.860;4.648;2022-11-20T00:31:18;39.25;;;21.00;;
9559;SDS011;4818;50.860;4.648;2022-11-20T00:33:44;38.38;;;20.23;;
9559;SDS011;4818;50.860;4.648;2022-11-20T00:36:15;36.88;;;19.85;;
9559;SDS011;4818;50.860;4.648;2022-11-20T00:38:41;37.33;;;19.75;;
9559;SDS011;4818;50.860;4.648;2022-11-20T00:41:08;42.25;;;21.42;;
9559;SDS011;4818;50.860;4.648;2022-11-20T00:43:35;42.38;;;21.60;;
9559;SDS011;4818;50.860;4.648;2022-11-20T00:46:03;38.80;;;19.95;;
9559;SDS011;4818;50.860;4.648;2022-11-20T00:48:29;37.55;;;19.70;;
9559;SDS011;4818;50.860;4.648;2022-11-20T00:50:56;41.90;;;20.30;;
9559;SDS011;4818;50.860;4.648;2022-11-20T00:53:23;41.15;;;19.95;;
9559;SDS011;4818;50.860;4.648;2022-11-20T00:55:59;39.22;;;20.55;;
9559;SDS011;4818;50.860;4.648;2022-11-20T00:58:28;39.92;;;18.98;;
9559;SDS011;4818;50.860;4.648;2022-11-20T01:00:59;40.28;;;19.65;;
9559;SDS011;4818;50.860;4.648;2022-11-20T01:03:26;37.58;;;20.42;;
9559;SDS011;4818;50.860;4.648;2022-11-20T01:05:52;47.63;;;22.25;;
9559;SDS011;4818;50.860;4.648;2022-11-20T01:08:18;40.17;;;19.88;;
9559;SDS011;4818;50.860;4.648;2022-11-20T01:10:44;38.40;;;20.45;;
9559;SDS011;4818;50.860;4.648;2022-11-20T01:13:10;43.58;;;21.33;;
9559;SDS011;4818;50.860;4.648;2022-11-20T01:15:55;45.13;;;21.23;;
9559;SDS011;4818;50.860;4.648;2022-11-20T01:18:27;41.88;;;21.05;;
9559;SDS011;4818;50.860;4.648;2022-11-20T01:20:53;41.35;;;19.30;;
9559;SDS011;4818;50.860;4.648;2022-11-20T01:23:20;40.00;;;19.83;;
9559;SDS011;4818;50.860;4.648;2022-11-20T01:25:46;34.85;;;18.50;;
9559;SDS011;4818;50.860;4.648;2022-11-20T01:28:12;41.03;;;20.25;;
9559;SDS011;4818;50.860;4.648;2022-11-20T01:30:38;34.90;;;18.85;;
9559;SDS011;4818;50.860;4.648;2022-11-20T01:33:04;39.13;;;19.73;;
9559;SDS011;4818;50.860;4.648;2022-11-20T01:35:31;34.33;;;17.75;;
9559;SDS011;4818;50.860;4.648;2022-11-20T01:37:57;38.05;;;21.30;;
9559;SDS011;4818;50.860;4.648;2022-11-20T01:40:23;40.28;;;20.00;;
9559;SDS011;4818;50.860;4.648;2022-11-20T01:42:53;43.45;;;21.95;;
9559;SDS011;4818;50.860;4.648;2022-11-20T01:48:26;46.08;;;21.50;;
9559;SDS011;4818;50.860;4.648;2022-11-20T01:50:54;41.72;;;20.70;;
9559;SDS011;4818;50.860;4.648;2022-11-20T01:53:21;45.88;;;22.25;;
9559;SDS011;4818;50.860;4.648;2022-11-20T01:55:51;43.63;;;21.43;;
9559;SDS011;4818;50.860;4.648;2022-11-20T01:58:19;47.50;;;22.60;;
9559;SDS011;4818;50.860;4.648;2022-11-20T02:00:46;52.25;;;23.90;;
9559;SDS011;4818;50.860;4.648;2022-11-20T02:03:14;51.88;;;23.00;;
9559;SDS011;4818;50.860;4.648;2022-11-20T02:05:45;54.85;;;23.88;;
9559;SDS011;4818;50.860;4.648;2022-11-20T02:08:13;50.85;;;22.70;;
9559;SDS011;4818;50.860;4.648;2022-11-20T02:10:39;50.30;;;24.30;;
9559;SDS011;4818;50.860;4.648;2022-11-20T02:13:06;50.72;;;24.73;;
9559;SDS011;4818;50.860;4.648;2022-11-20T02:15:51;58.08;;;25.33;;
9559;SDS011;4818;50.860;4.648;2022-11-20T02:18:18;53.97;;;24.83;;
9559;SDS011;4818;50.860;4.648;2022-11-20T02:20:45;51.75;;;24.08;;
9559;SDS011;4818;50.860;4.648;2022-11-20T02:23:14;58.92;;;26.55;;
9559;SDS011;4818;50.860;4.648;2022-11-20T02:25:42;56.05;;;26.17;;
9559;SDS011;4818;50.860;4.648;2022-11-20T02:28:09;53.45;;;25.85;;
9559;SDS011;4818;50.860;4.648;2022-11-20T02:30:35;47.45;;;24.02;;
9559;SDS011;4818;50.860;4.648;2022-11-20T02:33:02;50.55;;;25.77;;
9559;SDS011;4818;50.860;4.648;2022-11-20T02:37:55;53.58;;;26.52;;
9559;SDS011;4818;50.860;4.648;2022-11-20T02:40:21;55.80;;;26.50;;
9559;SDS011;4818;50.860;4.648;2022-11-20T02:42:51;50.85;;;24.45;;
9559;SDS011;4818;50.860;4.648;2022-11-20T02:47:43;45.60;;;20.88;;
9559;SDS011;4818;50.860;4.648;2022-11-20T02:50:10;53.30;;;24.30;;
9559;SDS011;4818;50.860;4.648;2022-11-20T02:52:36;54.17;;;24.40;;
9559;SDS011;4818;50.860;4.648;2022-11-20T02:55:02;66.15;;;27.98;;
9559;SDS011;4818;50.860;4.648;2022-11-20T02:57:29;56.38;;;24.90;;
9559;SDS011;4818;50.860;4.648;2022-11-20T02:59:55;54.95;;;24.67;;
9559;SDS011;4818;50.860;4.648;2022-11-20T03:02:21;56.83;;;25.98;;
9559;SDS011;4818;50.860;4.648;2022-11-20T03:04:48;55.65;;;26.35;;
9559;SDS011;4818;50.860;4.648;2022-11-20T03:07:14;53.63;;;23.63;;
9559;SDS011;4818;50.860;4.648;2022-11-20T03:09:40;57.72;;;26.33;;
9559;SDS011;4818;50.860;4.648;2022-11-20T03:12:06;48.35;;;24.10;;
9559;SDS011;4818;50.860;4.648;2022-11-20T03:14:32;54.97;;;26.73;;
9559;SDS011;4818;50.860;4.648;2022-11-20T03:16:58;65.93;;;26.85;;
9559;SDS011;4818;50.860;4.648;2022-11-20T03:19:25;65.57;;;26.17;;
9559;SDS011;4818;50.860;4.648;2022-11-20T03:21:51;51.42;;;22.17;;
9559;SDS011;4818;50.860;4.648;2022-11-20T03:24:17;56.97;;;23.90;;
9559;SDS011;4818;50.860;4.648;2022-11-20T03:26:43;59.33;;;24.95;;
9559;SDS011;4818;50.860;4.648;2022-11-20T03:29:09;53.17;;;22.90;;
9559;SDS011;4818;50.860;4.648;2022-11-20T03:31:37;57.20;;;24.40;;
9559;SDS011;4818;50.860;4.648;2022-11-20T03:34:05;58.17;;;25.15;;
9559;SDS011;4818;50.860;4.648;2022-11-20T03:36:32;48.25;;;23.20;;
9559;SDS011;4818;50.860;4.648;2022-11-20T03:38:58;53.55;;;23.13;;
9559;SDS011;4818;50.860;4.648;2022-11-20T03:41:26;52.22;;;24.08;;
9559;SDS011;4818;50.860;4.648;2022-11-20T03:43:54;55.78;;;23.30;;
9559;SDS011;4818;50.860;4.648;2022-11-20T03:46:20;58.35;;;25.38;;
9559;SDS011;4818;50.860;4.648;2022-11-20T03:48:47;57.75;;;26.00;;
9559;SDS011;4818;50.860;4.648;2022-11-20T03:51:17;50.17;;;25.45;;
9559;SDS011;4818;50.860;4.648;2022-11-20T03:53:45;56.95;;;25.20;;
9559;SDS011;4818;50.860;4.648;2022-11-20T03:56:12;53.08;;;23.55;;
9559;SDS011;4818;50.860;4.648;2022-11-20T03:58:39;44.60;;;20.77;;
9559;SDS011;4818;50.860;4.648;2022-11-20T04:01:27;44.65;;;22.13;;
9559;SDS011;4818;50.860;4.648;2022-11-20T04:03:52;43.50;;;20.88;;
9559;SDS011;4818;50.860;4.648;2022-11-20T04:06:29;50.80;;;23.35;;
9559;SDS011;4818;50.860;4.648;2022-11-20T04:08:56;52.67;;;23.35;;
9559;SDS011;4818;50.860;4.648;2022-11-20T04:11:24;50.50;;;23.08;;
9559;SDS011;4818;50.860;4.648;2022-11-20T04:13:51;51.13;;;22.20;;
9559;SDS011;4818;50.860;4.648;2022-11-20T04:16:18;50.70;;;23.75;;
9559;SDS011;4818;50.860;4.648;2022-11-20T04:18:44;52.00;;;24.92;;
9559;SDS011;4818;50.860;4.648;2022-11-20T04:21:11;49.20;;;23.33;;
9559;SDS011;4818;50.860;4.648;2022-11-20T04:23:37;57.55;;;23.95;;
9559;SDS011;4818;50.860;4.648;2022-11-20T04:26:08;46.80;;;20.60;;
9559;SDS011;4818;50.860;4.648;2022-11-20T04:28:34;48.47;;;23.08;;
9559;SDS011;4818;50.860;4.648;2022-11-20T04:31:05;43.45;;;21.52;;
9559;SDS011;4818;50.860;4.648;2022-11-20T04:33:32;43.17;;;20.27;;
9559;SDS011;4818;50.860;4.648;2022-11-20T04:39:05;56.53;;;23.92;;
9559;SDS011;4818;50.860;4.648;2022-11-20T04:41:32;45.53;;;20.88;;
9559;SDS011;4818;50.860;4.648;2022-11-20T04:43:59;44.92;;;20.67;;
9559;SDS011;4818;50.860;4.648;2022-11-20T04:46:28;49.33;;;21.83;;
9559;SDS011;4818;50.860;4.648;2022-11-20T04:48:55;43.17;;;21.25;;
9559;SDS011;4818;50.860;4.648;2022-11-20T04:51:21;47.25;;;19.73;;
9559;SDS011;4818;50.860;4.648;2022-11-20T04:53:48;44.63;;;19.88;;
9559;SDS011;4818;50.860;4.648;2022-11-20T04:56:14;42.50;;;20.38;;
9559;SDS011;4818;50.860;4.648;2022-11-20T04:58:41;43.55;;;21.20;;
9559;SDS011;4818;50.860;4.648;2022-11-20T05:01:15;48.08;;;20.52;;
9559;SDS011;4818;50.860;4.648;2022-11-20T05:03:41;47.28;;;20.40;;
9559;SDS011;4818;50.860;4.648;2022-11-20T05:06:08;53.80;;;22.73;;
9559;SDS011;4818;50.860;4.648;2022-11-20T05:08:35;45.58;;;21.33;;
9559;SDS011;4818;50.860;4.648;2022-11-20T05:13:27;44.63;;;20.00;;
9559;SDS011;4818;50.860;4.648;2022-11-20T05:15:54;42.42;;;19.58;;
9559;SDS011;4818;50.860;4.648;2022-11-20T05:18:20;48.55;;;22.02;;
9559;SDS011;4818;50.860;4.648;2022-11-20T05:20:46;51.15;;;21.55;;
9559;SDS011;4818;50.860;4.648;2022-11-20T05:23:12;44.78;;;19.88;;
9559;SDS011;4818;50.860;4.648;2022-11-20T05:25:38;41.35;;;19.20;;
9559;SDS011;4818;50.860;4.648;2022-11-20T05:28:04;41.70;;;19.48;;
9559;SDS011;4818;50.860;4.648;2022-11-20T05:30:31;43.42;;;21.60;;
9559;SDS011;4818;50.860;4.648;2022-11-20T05:32:57;46.13;;;20.02;;
9559;SDS011;4818;50.860;4.648;2022-11-20T05:35:23;42.28;;;19.20;;
9559;SDS011;4818;50.860;4.648;2022-11-20T05:37:49;42.95;;;19.35;;
9559;SDS011;4818;50.860;4.648;2022-11-20T05:40:16;40.63;;;18.77;;
9559;SDS011;4818;50.860;4.648;2022-11-20T05:42:42;43.75;;;19.65;;
9559;SDS011;4818;50.860;4.648;2022-11-20T05:45:08;38.88;;;18.70;;
9559;SDS011;4818;50.860;4.648;2022-11-20T05:47:35;39.08;;;18.98;;
9559;SDS011;4818;50.860;4.648;2022-11-20T05:50:01;36.83;;;16.40;;
9559;SDS011;4818;50.860;4.648;2022-11-20T05:52:30;36.40;;;16.90;;
9559;SDS011;4818;50.860;4.648;2022-11-20T05:54:56;46.92;;;17.80;;
9559;SDS011;4818;50.860;4.648;2022-11-20T05:57:22;38.25;;;17.95;;
9559;SDS011;4818;50.860;4.648;2022-11-20T05:59:49;44.70;;;18.98;;
9559;SDS011;4818;50.860;4.648;2022-11-20T06:02:15;38.65;;;18.27;;
9559;SDS011;4818;50.860;4.648;2022-11-20T06:04:41;44.15;;;18.33;;
9559;SDS011;4818;50.860;4.648;2022-11-20T06:07:07;42.00;;;18.10;;
9559;SDS011;4818;50.860;4.648;2022-11-20T06:09:35;45.05;;;18.35;;
9559;SDS011;4818;50.860;4.648;2022-11-20T06:12:01;48.55;;;19.33;;
9559;SDS011;4818;50.860;4.648;2022-11-20T06:14:27;45.30;;;19.30;;
9559;SDS011;4818;50.860;4.648;2022-11-20T06:16:54;49.47;;;20.38;;
9559;SDS011;4818;50.860;4.648;2022-11-20T06:19:20;40.97;;;17.73;;
9559;SDS011;4818;50.860;4.648;2022-11-20T06:21:47;45.58;;;18.33;;
9559;SDS011;4818;50.860;4.648;2022-11-20T06:24:14;47.47;;;19.50;;
9559;SDS011;4818;50.860;4.648;2022-11-20T06:26:40;55.50;;;21.70;;
9559;SDS011;4818;50.860;4.648;2022-11-20T06:29:07;55.22;;;19.60;;
9559;SDS011;4818;50.860;4.648;2022-11-20T06:31:33;50.10;;;19.60;;
9559;SDS011;4818;50.860;4.648;2022-11-20T06:34:03;56.72;;;21.65;;
9559;SDS011;4818;50.860;4.648;2022-11-20T06:36:29;69.68;;;23.77;;
9559;SDS011;4818;50.860;4.648;2022-11-20T06:38:55;60.88;;;22.05;;
9559;SDS011;4818;50.860;4.648;2022-11-20T06:41:21;63.45;;;21.88;;
9559;SDS011;4818;50.860;4.648;2022-11-20T06:43:48;53.17;;;21.52;;
9559;SDS011;4818;50.860;4.648;2022-11-20T06:46:15;66.88;;;24.08;;
9559;SDS011;4818;50.860;4.648;2022-11-20T06:48:45;60.45;;;21.00;;
9559;SDS011;4818;50.860;4.648;2022-11-20T06:51:11;73.20;;;23.20;;
9559;SDS011;4818;50.860;4.648;2022-11-20T06:53:38;78.43;;;25.65;;
9559;SDS011;4818;50.860;4.648;2022-11-20T06:56:04;70.80;;;25.17;;
9559;SDS011;4818;50.860;4.648;2022-11-20T06:58:31;61.83;;;22.20;;
9559;SDS011;4818;50.860;4.648;2022-11-20T07:01:01;77.55;;;25.65;;
9559;SDS011;4818;50.860;4.648;2022-11-20T07:03:28;72.25;;;23.02;;
9559;SDS011;4818;50.860;4.648;2022-11-20T07:05:55;88.90;;;26.10;;
9559;SDS011;4818;50.860;4.648;2022-11-20T07:08:21;71.70;;;24.88;;
9559;SDS011;4818;50.860;4.648;2022-11-20T07:10:47;79.47;;;25.88;;
9559;SDS011;4818;50.860;4.648;2022-11-20T07:13:13;80.72;;;25.50;;
9559;SDS011;4818;50.860;4.648;2022-11-20T07:15:40;83.15;;;26.92;;
9559;SDS011;4818;50.860;4.648;2022-11-20T07:18:06;71.85;;;25.73;;
9559;SDS011;4818;50.860;4.648;2022-11-20T07:20:32;75.57;;;24.80;;
9559;SDS011;4818;50.860;4.648;2022-11-20T07:22:58;72.55;;;25.77;;
9559;SDS011;4818;50.860;4.648;2022-11-20T07:25:31;72.18;;;23.45;;
9559;SDS011;4818;50.860;4.648;2022-11-20T07:27:58;83.85;;;25.30;;
9559;SDS011;4818;50.860;4.648;2022-11-20T07:30:24;74.53;;;25.77;;
9559;SDS011;4818;50.860;4.648;2022-11-20T07:32:51;79.20;;;25.95;;
9559;SDS011;4818;50.860;4.648;2022-11-20T07:35:17;66.60;;;23.27;;
9559;SDS011;4818;50.860;4.648;2022-11-20T07:37:44;78.97;;;25.60;;
9559;SDS011;4818;50.860;4.648;2022-11-20T07:40:11;80.55;;;25.83;;
9559;SDS011;4818;50.860;4.648;2022-11-20T07:42:38;78.93;;;26.35;;
9559;SDS011;4818;50.860;4.648;2022-11-20T07:45:04;79.57;;;25.40;;
9559;SDS011;4818;50.860;4.648;2022-11-20T07:47:36;73.05;;;26.60;;
9559;SDS011;4818;50.860;4.648;2022-11-20T07:50:03;71.35;;;23.83;;
9559;SDS011;4818;50.860;4.648;2022-11-20T07:52:29;83.90;;;27.92;;
9559;SDS011;4818;50.860;4.648;2022-11-20T07:54:55;85.25;;;25.67;;
9559;SDS011;4818;50.860;4.648;2022-11-20T07:57:22;73.18;;;26.10;;
9559;SDS011;4818;50.860;4.648;2022-11-20T07:59:48;74.28;;;24.65;;
9559;SDS011;4818;50.860;4.648;2022-11-20T08:02:14;75.60;;;25.33;;
9559;SDS011;4818;50.860;4.648;2022-11-20T08:04:41;75.15;;;23.83;;
9559;SDS011;4818;50.860;4.648;2022-11-20T08:07:09;75.03;;;26.05;;
9559;SDS011;4818;50.860;4.648;2022-11-20T08:09:36;74.40;;;26.70;;
9559;SDS011;4818;50.860;4.648;2022-11-20T08:12:04;85.57;;;26.35;;
9559;SDS011;4818;50.860;4.648;2022-11-20T08:14:49;80.78;;;25.23;;
9559;SDS011;4818;50.860;4.648;2022-11-20T08:17:16;75.05;;;24.85;;
9559;SDS011;4818;50.860;4.648;2022-11-20T08:19:42;83.70;;;26.23;;
9559;SDS011;4818;50.860;4.648;2022-11-20T08:22:08;78.95;;;25.08;;
9559;SDS011;4818;50.860;4.648;2022-11-20T08:24:34;73.68;;;25.35;;
9559;SDS011;4818;50.860;4.648;2022-11-20T08:27:01;76.47;;;25.95;;
9559;SDS011;4818;50.860;4.648;2022-11-20T08:29:27;84.63;;;26.23;;
9559;SDS011;4818;50.860;4.648;2022-11-20T08:31:53;77.68;;;25.52;;
9559;SDS011;4818;50.860;4.648;2022-11-20T08:37:03;87.68;;;27.08;;
9559;SDS011;4818;50.860;4.648;2022-11-20T08:39:29;80.53;;;26.77;;
9559;SDS011;4818;50.860;4.648;2022-11-20T08:41:56;81.95;;;29.27;;
9559;SDS011;4818;50.860;4.648;2022-11-20T08:44:22;86.32;;;26.13;;
9559;SDS011;4818;50.860;4.648;2022-11-20T08:46:49;83.85;;;26.88;;
9559;SDS011;4818;50.860;4.648;2022-11-20T08:49:15;88.68;;;27.40;;
9559;SDS011;4818;50.860;4.648;2022-11-20T08:51:41;86.80;;;26.40;;
9559;SDS011;4818;50.860;4.648;2022-11-20T08:54:10;88.30;;;27.52;;
9559;SDS011;4818;50.860;4.648;2022-11-20T08:56:57;80.78;;;26.02;;
9559;SDS011;4818;50.860;4.648;2022-11-20T08:59:22;84.35;;;26.77;;
9559;SDS011;4818;50.860;4.648;2022-11-20T09:02:03;95.68;;;30.15;;
9559;SDS011;4818;50.860;4.648;2022-11-20T09:04:32;83.10;;;27.77;;
9559;SDS011;4818;50.860;4.648;2022-11-20T09:07:02;75.32;;;23.95;;
9559;SDS011;4818;50.860;4.648;2022-11-20T09:09:28;76.38;;;25.80;;
9559;SDS011;4818;50.860;4.648;2022-11-20T09:11:54;73.45;;;25.17;;
9559;SDS011;4818;50.860;4.648;2022-11-20T09:14:20;86.43;;;26.08;;
9559;SDS011;4818;50.860;4.648;2022-11-20T09:16:49;73.80;;;24.88;;
9559;SDS011;4818;50.860;4.648;2022-11-20T09:19:16;72.50;;;25.65;;
9559;SDS011;4818;50.860;4.648;2022-11-20T09:21:42;80.47;;;26.52;;
9559;SDS011;4818;50.860;4.648;2022-11-20T09:24:08;82.13;;;27.48;;
9559;SDS011;4818;50.860;4.648;2022-11-20T09:26:34;75.72;;;25.08;;
9559;SDS011;4818;50.860;4.648;2022-11-20T09:29:01;72.78;;;26.15;;
9559;SDS011;4818;50.860;4.648;2022-11-20T09:31:27;86.43;;;25.77;;
9559;SDS011;4818;50.860;4.648;2022-11-20T09:33:54;72.43;;;23.67;;
9559;SDS011;4818;50.860;4.648;2022-11-20T09:36:20;77.05;;;24.00;;
9559;SDS011;4818;50.860;4.648;2022-11-20T09:38:47;78.90;;;25.77;;
9559;SDS011;4818;50.860;4.648;2022-11-20T09:46:40;75.03;;;24.70;;
9559;SDS011;4818;50.860;4.648;2022-11-20T09:54:34;58.05;;;22.08;;
9559;SDS011;4818;50.860;4.648;2022-11-20T09:57:04;63.80;;;22.67;;
9559;SDS011;4818;50.860;4.648;2022-11-20T09:59:44;70.22;;;22.50;;
9559;SDS011;4818;50.860;4.648;2022-11-20T10:04:42;63.20;;;21.85;;
9559;SDS011;4818;50.860;4.648;2022-11-20T10:07:19;54.17;;;20.45;;
9559;SDS011;4818;50.860;4.648;2022-11-20T10:09:51;56.60;;;20.98;;
9559;SDS011;4818;50.860;4.648;2022-11-20T10:12:20;58.33;;;20.27;;
9559;SDS011;4818;50.860;4.648;2022-11-20T10:24:57;56.65;;;20.95;;
9559;SDS011;4818;50.860;4.648;2022-11-20T10:27:32;54.00;;;19.33;;
9559;SDS011;4818;50.860;4.648;2022-11-20T10:30:03;49.35;;;18.80;;
9559;SDS011;4818;50.860;4.648;2022-11-20T10:32:35;44.42;;;16.60;;
9559;SDS011;4818;50.860;4.648;2022-11-20T10:37:58;41.05;;;18.15;;
9559;SDS011;4818;50.860;4.648;2022-11-20T10:43:01;37.42;;;15.65;;
9559;SDS011;4818;50.860;4.648;2022-11-20T10:45:40;38.03;;;15.47;;
9559;SDS011;4818;50.860;4.648;2022-11-20T10:50:40;44.03;;;16.08;;
9559;SDS011;4818;50.860;4.648;2022-11-20T10:56:22;29.60;;;13.40;;
9559;SDS011;4818;50.860;4.648;2022-11-20T11:01:18;23.38;;;10.32;;
9559;SDS011;4818;50.860;4.648;2022-11-20T11:03:47;25.52;;;10.48;;
9559;SDS011;4818;50.860;4.648;2022-11-20T11:08:59;18.33;;;8.02;;
9559;SDS011;4818;50.860;4.648;2022-11-20T11:11:29;17.15;;;7.70;;
9559;SDS011;4818;50.860;4.648;2022-11-20T11:14:10;14.75;;;6.40;;
9559;SDS011;4818;50.860;4.648;2022-11-20T11:16:40;16.17;;;7.22;;
9559;SDS011;4818;50.860;4.648;2022-11-20T11:19:14;10.25;;;5.03;;
9559;SDS011;4818;50.860;4.648;2022-11-20T11:21:51;8.82;;;3.20;;
9559;SDS011;4818;50.860;4.648;2022-11-20T11:27:00;9.30;;;2.90;;
9559;SDS011;4818;50.860;4.648;2022-11-20T11:29:31;6.38;;;2.35;;
9559;SDS011;4818;50.860;4.648;2022-11-20T11:34:30;7.35;;;1.60;;
9559;SDS011;4818;50.860;4.648;2022-11-20T11:36:57;8.00;;;1.63;;
9559;SDS011;4818;50.860;4.648;2022-11-20T11:39:24;8.40;;;2.45;;
9559;SDS011;4818;50.860;4.648;2022-11-20T11:41:51;12.07;;;1.83;;
9559;SDS011;4818;50.860;4.648;2022-11-20T11:44:19;4.30;;;1.33;;
9559;SDS011;4818;50.860;4.648;2022-11-20T11:47:05;8.88;;;1.17;;
9559;SDS011;4818;50.860;4.648;2022-11-20T11:49:35;5.00;;;1.67;;
9559;SDS011;4818;50.860;4.648;2022-11-20T12:02:31;4.32;;;0.90;;
9559;SDS011;4818;50.860;4.648;2022-11-20T12:05:00;5.95;;;0.90;;
9559;SDS011;4818;50.860;4.648;2022-11-20T12:09:57;4.72;;;0.50;;
9559;SDS011;4818;50.860;4.648;2022-11-20T12:12:25;5.07;;;1.00;;
9559;SDS011;4818;50.860;4.648;2022-11-20T12:14:53;2.42;;;0.70;;
9559;SDS011;4818;50.860;4.648;2022-11-20T12:17:20;7.80;;;1.10;;
9559;SDS011;4818;50.860;4.648;2022-11-20T12:19:47;2.60;;;0.77;;
9559;SDS011;4818;50.860;4.648;2022-11-20T12:25:02;10.60;;;0.88;;
9559;SDS011;4818;50.860;4.648;2022-11-20T12:27:39;3.63;;;0.70;;
9559;SDS011;4818;50.860;4.648;2022-11-20T12:30:17;2.53;;;0.68;;
9559;SDS011;4818;50.860;4.648;2022-11-20T12:38:29;5.82;;;0.98;;
9559;SDS011;4818;50.860;4.648;2022-11-20T12:41:08;7.07;;;1.08;;
9559;SDS011;4818;50.860;4.648;2022-11-20T12:43:47;2.08;;;0.68;;
9559;SDS011;4818;50.860;4.648;2022-11-20T12:46:43;7.50;;;1.40;;
9559;SDS011;4818;50.860;4.648;2022-11-20T12:57:12;5.97;;;1.15;;
9559;SDS011;4818;50.860;4.648;2022-11-20T13:04:54;5.63;;;1.15;;
9559;SDS011;4818;50.860;4.648;2022-11-20T13:07:21;7.07;;;1.50;;
9559;SDS011;4818;50.860;4.648;2022-11-20T13:09:50;11.90;;;2.33;;
9559;SDS011;4818;50.860;4.648;2022-11-20T13:17:38;6.72;;;1.63;;
9559;SDS011;4818;50.860;4.648;2022-11-20T13:20:09;6.65;;;1.38;;
9559;SDS011;4818;50.860;4.648;2022-11-20T13:22:46;7.00;;;1.38;;
9559;SDS011;4818;50.860;4.648;2022-11-20T13:25:26;8.98;;;1.63;;
9559;SDS011;4818;50.860;4.648;2022-11-20T13:27:53;5.80;;;2.00;;
9559;SDS011;4818;50.860;4.648;2022-11-20T13:30:20;5.40;;;1.75;;
9559;SDS011;4818;50.860;4.648;2022-11-20T13:35:39;4.93;;;1.85;;
9559;SDS011;4818;50.860;4.648;2022-11-20T13:38:20;6.82;;;1.75;;
9559;SDS011;4818;50.860;4.648;2022-11-20T13:40:57;4.05;;;1.85;;
9559;SDS011;4818;50.860;4.648;2022-11-20T13:43:42;7.68;;;2.55;;
9559;SDS011;4818;50.860;4.648;2022-11-20T13:46:09;10.50;;;2.65;;
9559;SDS011;4818;50.860;4.648;2022-11-20T13:54:03;5.07;;;1.60;;
9559;SDS011;4818;50.860;4.648;2022-11-20T14:01:41;5.32;;;1.75;;
9559;SDS011;4818;50.860;4.648;2022-11-20T14:04:11;4.38;;;1.40;;
9559;SDS011;4818;50.860;4.648;2022-11-20T14:06:43;6.45;;;1.25;;
9559;SDS011;4818;50.860;4.648;2022-11-20T14:09:11;5.63;;;1.55;;
9559;SDS011;4818;50.860;4.648;2022-11-20T14:11:45;4.53;;;1.75;;
9559;SDS011;4818;50.860;4.648;2022-11-20T14:16:44;6.50;;;1.48;;
9559;SDS011;4818;50.860;4.648;2022-11-20T14:21:43;4.80;;;1.55;;
9559;SDS011;4818;50.860;4.648;2022-11-20T14:24:12;3.30;;;1.27;;
9559;SDS011;4818;50.860;4.648;2022-11-20T14:29:05;3.15;;;1.00;;
9559;SDS011;4818;50.860;4.648;2022-11-20T14:31:31;4.65;;;1.17;;
9559;SDS011;4818;50.860;4.648;2022-11-20T14:33:57;3.67;;;1.13;;
9559;SDS011;4818;50.860;4.648;2022-11-20T14:36:24;3.33;;;1.25;;
9559;SDS011;4818;50.860;4.648;2022-11-20T14:38:51;2.05;;;1.08;;
9559;SDS011;4818;50.860;4.648;2022-11-20T14:41:20;3.00;;;1.15;;
9559;SDS011;4818;50.860;4.648;2022-11-20T14:43:55;4.05;;;1.00;;
9559;SDS011;4818;50.860;4.648;2022-11-20T14:46:22;1.60;;;0.57;;
9559;SDS011;4818;50.860;4.648;2022-11-20T14:48:50;4.25;;;0.50;;
9559;SDS011;4818;50.860;4.648;2022-11-20T14:51:25;1.33;;;0.70;;
9559;SDS011;4818;50.860;4.648;2022-11-20T14:53:52;4.90;;;0.75;;
9559;SDS011;4818;50.860;4.648;2022-11-20T14:56:23;3.67;;;0.40;;
9559;SDS011;4818;50.860;4.648;2022-11-20T14:58:56;1.70;;;0.50;;
9559;SDS011;4818;50.860;4.648;2022-11-20T15:01:29;2.10;;;0.43;;
9559;SDS011;4818;50.860;4.648;2022-11-20T15:04:14;1.23;;;0.63;;
9559;SDS011;4818;50.860;4.648;2022-11-20T15:06:48;1.77;;;0.40;;
9559;SDS011;4818;50.860;4.648;2022-11-20T15:09:15;3.05;;;0.50;;
9559;SDS011;4818;50.860;4.648;2022-11-20T15:11:50;0.98;;;0.50;;
9559;SDS011;4818;50.860;4.648;2022-11-20T15:14:17;3.13;;;0.50;;
9559;SDS011;4818;50.860;4.648;2022-11-20T15:16:44;2.45;;;0.70;;
9559;SDS011;4818;50.860;4.648;2022-11-20T15:19:17;2.75;;;0.60;;
9559;SDS011;4818;50.860;4.648;2022-11-20T15:21:43;1.83;;;0.70;;
9559;SDS011;4818;50.860;4.648;2022-11-20T15:24:10;3.65;;;1.13;;
9559;SDS011;4818;50.860;4.648;2022-11-20T15:26:36;4.18;;;0.90;;
9559;SDS011;4818;50.860;4.648;2022-11-20T15:29:05;2.30;;;1.20;;
9559;SDS011;4818;50.860;4.648;2022-11-20T15:31:34;6.20;;;1.30;;
9559;SDS011;4818;50.860;4.648;2022-11-20T15:34:00;4.82;;;0.98;;
9559;SDS011;4818;50.860;4.648;2022-11-20T15:36:26;2.60;;;1.42;;
9559;SDS011;4818;50.860;4.648;2022-11-20T15:38:53;3.95;;;1.80;;
9559;SDS011;4818;50.860;4.648;2022-11-20T15:41:19;8.75;;;1.95;;
9559;SDS011;4818;50.860;4.648;2022-11-20T15:43:45;7.82;;;2.88;;
9559;SDS011;4818;50.860;4.648;2022-11-20T15:46:12;7.03;;;2.50;;
9559;SDS011;4818;50.860;4.648;2022-11-20T15:48:41;4.82;;;2.40;;
9559;SDS011;4818;50.860;4.648;2022-11-20T15:51:14;6.68;;;2.47;;
9559;SDS011;4818;50.860;4.648;2022-11-20T15:53:44;6.03;;;2.92;;
9559;SDS011;4818;50.860;4.648;2022-11-20T15:56:11;5.95;;;2.72;;
9559;SDS011;4818;50.860;4.648;2022-11-20T15:58:38;9.48;;;2.63;;
9559;SDS011;4818;50.860;4.648;2022-11-20T16:01:05;10.07;;;2.35;;
9559;SDS011;4818;50.860;4.648;2022-11-20T16:03:31;9.27;;;2.70;;
9559;SDS011;4818;50.860;4.648;2022-11-20T16:05:57;5.30;;;2.85;;
9559;SDS011;4818;50.860;4.648;2022-11-20T16:08:23;5.72;;;2.33;;
9559;SDS011;4818;50.860;4.648;2022-11-20T16:10:50;7.15;;;2.13;;
9559;SDS011;4818;50.860;4.648;2022-11-20T16:13:17;3.70;;;1.70;;
9559;SDS011;4818;50.860;4.648;2022-11-20T16:16:03;11.15;;;2.92;;
9559;SDS011;4818;50.860;4.648;2022-11-20T16:18:30;13.60;;;2.10;;
9559;SDS011;4818;50.860;4.648;2022-11-20T16:20:56;8.38;;;2.75;;
9559;SDS011;4818;50.860;4.648;2022-11-20T16:23:22;8.68;;;2.40;;
9559;SDS011;4818;50.860;4.648;2022-11-20T16:25:49;9.45;;;2.33;;
9559;SDS011;4818;50.860;4.648;2022-11-20T16:28:15;7.55;;;2.40;;
9559;SDS011;4818;50.860;4.648;2022-11-20T16:30:42;6.70;;;1.88;;
9559;SDS011;4818;50.860;4.648;2022-11-20T16:33:12;11.55;;;2.45;;
9559;SDS011;4818;50.860;4.648;2022-11-20T16:35:38;15.00;;;2.20;;
9559;SDS011;4818;50.860;4.648;2022-11-20T16:38:05;7.03;;;2.90;;
9559;SDS011;4818;50.860;4.648;2022-11-20T16:40:31;7.30;;;1.98;;
9559;SDS011;4818;50.860;4.648;2022-11-20T16:42:57;6.30;;;2.00;;
9559;SDS011;4818;50.860;4.648;2022-11-20T16:45:32;11.57;;;2.40;;
9559;SDS011;4818;50.860;4.648;2022-11-20T16:47:58;9.98;;;2.45;;
9559;SDS011;4818;50.860;4.648;2022-11-20T16:50:24;9.38;;;2.10;;
9559;SDS011;4818;50.860;4.648;2022-11-20T16:52:51;12.93;;;2.65;;
9559;SDS011;4818;50.860;4.648;2022-11-20T16:55:17;24.13;;;4.22;;
9559;SDS011;4818;50.860;4.648;2022-11-20T16:57:43;13.57;;;3.03;;
9559;SDS011;4818;50.860;4.648;2022-11-20T17:00:09;12.40;;;2.60;;
9559;SDS011;4818;50.860;4.648;2022-11-20T17:02:36;17.95;;;2.30;;
9559;SDS011;4818;50.860;4.648;2022-11-20T17:05:02;8.35;;;1.55;;